Time;durP1;ratioP1;P1;durP2;ratioP2;P2;SDS_P1;SDS_P2;PMS_P1;PMS_P2;Temp;Humidity;BMP_temperature;BMP_pressure;BME280_temperature;BME280_humidity;BME280_pressure;Samples;Min_cycle;Max_cycle;Signal;HPM_P1;HPM_P2
2022/03/31 00:01:17;;;;;;;;;40.00;35.50;;;;;;;;5076033;28;45646;-64
2022/03/31 00:03:42;;;;;;;;;37.50;35.50;;;;;;;;5074462;28;45634;-64
2022/03/31 00:06:07;;;;;;;;;37.75;35.00;;;;;;;;5075901;27;45811;-64
2022/03/31 00:08:32;;;;;;;;;43.00;37.00;;;;;;;;5074306;28;47610;-63
2022/03/31 00:10:57;;;;;;;;;37.50;33.50;;;;;;;;5075644;27;45374;-64
2022/03/31 00:13:24;;;;;;;;;42.00;36.25;;;;;;;;5076448;28;45611;-63
2022/03/31 00:15:49;;;;;;;;;37.25;30.50;;;;;;;;5075640;27;45574;-65
2022/03/31 00:18:15;;;;;;;;;42.25;36.50;;;;;;;;5075244;28;45598;-64
2022/03/31 00:20:40;;;;;;;;;35.75;32.00;;;;;;;;5075540;27;45359;-64
2022/03/31 00:23:06;;;;;;;;;38.00;33.00;;;;;;;;5075387;27;45622;-64
2022/03/31 00:25:31;;;;;;;;;39.00;35.00;;;;;;;;5076027;28;45366;-65
2022/03/31 00:27:57;;;;;;;;;47.00;34.25;;;;;;;;5075134;28;46597;-66
2022/03/31 00:30:22;;;;;;;;;42.00;32.50;;;;;;;;5074040;28;46977;-65
2022/03/31 00:32:47;;;;;;;;;38.75;35.25;;;;;;;;5075726;28;45452;-64
2022/03/31 00:35:13;;;;;;;;;40.25;35.00;;;;;;;;5075326;27;45819;-64
2022/03/31 00:37:42;;;;;;;;;37.75;34.75;;;;;;;;5075089;28;45776;-65
2022/03/31 00:40:09;;;;;;;;;42.00;36.50;;;;;;;;5074904;27;45610;-65
2022/03/31 00:42:44;;;;;;;;;38.50;35.50;;;;;;;;5074968;27;45381;-64
2022/03/31 00:45:14;;;;;;;;;46.00;39.50;;;;;;;;5075023;27;45561;-65
2022/03/31 00:47:40;;;;;;;;;45.25;37.75;;;;;;;;5072047;28;48769;-65
2022/03/31 00:50:05;;;;;;;;;41.25;36.00;;;;;;;;5075090;27;45470;-65
2022/03/31 00:52:31;;;;;;;;;42.00;35.75;;;;;;;;5074505;28;45818;-65
2022/03/31 00:54:56;;;;;;;;;48.25;37.75;;;;;;;;5075033;27;45388;-66
2022/03/31 00:57:21;;;;;;;;;34.00;32.75;;;;;;;;5073330;28;46655;-65
2022/03/31 00:59:47;;;;;;;;;47.75;38.25;;;;;;;;5074877;28;45458;-65
2022/03/31 01:02:13;;;;;;;;;50.00;40.25;;;;;;;;5074998;27;45365;-65
2022/03/31 01:04:39;;;;;;;;;47.50;39.50;;;;;;;;5075644;27;45407;-65
2022/03/31 01:07:05;;;;;;;;;47.25;39.00;;;;;;;;5067390;28;47718;-64
2022/03/31 01:09:32;;;;;;;;;47.25;39.25;;;;;;;;5074783;27;45375;-65
2022/03/31 01:11:58;;;;;;;;;50.00;43.00;;;;;;;;5074428;27;45569;-65
2022/03/31 01:14:23;;;;;;;;;49.50;39.25;;;;;;;;5072102;28;45579;-64
2022/03/31 01:16:48;;;;;;;;;47.50;40.00;;;;;;;;5075387;28;46142;-63
2022/03/31 01:19:13;;;;;;;;;50.00;40.00;;;;;;;;5074273;28;45524;-64
2022/03/31 01:21:40;;;;;;;;;48.75;40.50;;;;;;;;5074357;28;45423;-64
2022/03/31 01:24:09;;;;;;;;;47.50;39.75;;;;;;;;5074660;28;45450;-64
2022/03/31 01:26:35;;;;;;;;;40.00;37.00;;;;;;;;5074630;27;46457;-63
2022/03/31 01:29:00;;;;;;;;;46.00;39.00;;;;;;;;5073167;28;45966;-63
2022/03/31 01:31:26;;;;;;;;;50.50;41.50;;;;;;;;5073442;28;45433;-63
2022/03/31 01:33:52;;;;;;;;;42.00;37.00;;;;;;;;5074436;27;45517;-63
2022/03/31 01:36:17;;;;;;;;;47.75;40.25;;;;;;;;5066949;28;47432;-63
2022/03/31 01:38:42;;;;;;;;;50.50;39.25;;;;;;;;5074164;28;45356;-63
2022/03/31 01:41:07;;;;;;;;;54.75;43.25;;;;;;;;5074445;27;45435;-65
2022/03/31 01:43:32;;;;;;;;;44.50;37.75;;;;;;;;5074983;28;45329;-64
2022/03/31 01:45:58;;;;;;;;;45.00;37.75;;;;;;;;5073902;28;45667;-64
2022/03/31 01:48:23;;;;;;;;;49.75;38.75;;;;;;;;5074040;27;45390;-64
2022/03/31 01:50:50;;;;;;;;;51.50;40.25;;;;;;;;5074113;28;45455;-63
2022/03/31 01:53:15;;;;;;;;;59.50;44.75;;;;;;;;5072783;28;45720;-64
2022/03/31 01:55:40;;;;;;;;;50.50;38.50;;;;;;;;5073221;28;47874;-65
2022/03/31 01:58:06;;;;;;;;;51.00;42.00;;;;;;;;5074073;28;45750;-64
2022/03/31 02:00:31;;;;;;;;;53.50;42.75;;;;;;;;5066689;28;45638;-64
2022/03/31 02:02:56;;;;;;;;;51.00;40.75;;;;;;;;5074031;28;45724;-63
2022/03/31 02:05:22;;;;;;;;;55.00;44.00;;;;;;;;5071126;28;47390;-63
2022/03/31 02:07:47;;;;;;;;;47.25;40.00;;;;;;;;5074640;27;45470;-65
2022/03/31 02:10:13;;;;;;;;;43.75;38.75;;;;;;;;5073970;27;45440;-66
2022/03/31 02:12:39;;;;;;;;;50.75;43.00;;;;;;;;5072030;28;45576;-65
2022/03/31 02:15:05;;;;;;;;;54.25;45.50;;;;;;;;5073586;28;46269;-65
2022/03/31 02:17:30;;;;;;;;;54.25;45.25;;;;;;;;5073839;28;45540;-65
2022/03/31 02:19:56;;;;;;;;;53.25;44.00;;;;;;;;5074093;27;45446;-65
2022/03/31 02:22:22;;;;;;;;;53.00;43.25;;;;;;;;5067262;28;45652;-65
2022/03/31 02:24:48;;;;;;;;;49.75;40.50;;;;;;;;5073415;27;46568;-65
2022/03/31 02:27:13;;;;;;;;;50.75;42.50;;;;;;;;5064558;28;45495;-65
2022/03/31 02:29:38;;;;;;;;;53.75;45.00;;;;;;;;5073909;27;45368;-65
2022/03/31 02:32:04;;;;;;;;;44.50;38.25;;;;;;;;5072717;28;45410;-66
2022/03/31 02:34:29;;;;;;;;;44.25;40.00;;;;;;;;5056955;28;47521;-66
2022/03/31 02:36:54;;;;;;;;;50.50;40.50;;;;;;;;5070831;28;45651;-66
2022/03/31 02:39:20;;;;;;;;;52.00;43.25;;;;;;;;5065707;28;45498;-66
2022/03/31 02:41:45;;;;;;;;;51.75;44.00;;;;;;;;5073682;27;45447;-65
2022/03/31 02:44:11;;;;;;;;;53.00;42.25;;;;;;;;5055249;28;47519;-66
2022/03/31 02:46:36;;;;;;;;;52.00;41.50;;;;;;;;5074247;28;45378;-67
2022/03/31 02:49:02;;;;;;;;;51.00;42.25;;;;;;;;5073229;28;45407;-63
2022/03/31 02:51:28;;;;;;;;;50.75;41.00;;;;;;;;5073451;27;45457;-64
2022/03/31 02:56:37;;;;;;;;;49.75;42.50;;;;;;;;5073175;28;45520;-64
2022/03/31 02:59:04;;;;;;;;;55.25;43.00;;;;;;;;5073534;27;45368;-65
2022/03/31 03:01:29;;;;;;;;;58.00;46.75;;;;;;;;5072828;28;45352;-64
2022/03/31 03:03:55;;;;;;;;;44.75;39.50;;;;;;;;5069114;28;48563;-64
2022/03/31 03:06:20;;;;;;;;;53.25;43.50;;;;;;;;5076802;27;45470;-65
2022/03/31 03:08:45;;;;;;;;;55.00;44.25;;;;;;;;5076906;28;45495;-65
2022/03/31 03:11:11;;;;;;;;;50.25;43.75;;;;;;;;5076514;28;45616;-65
2022/03/31 03:13:36;;;;;;;;;47.50;39.25;;;;;;;;5077263;27;45513;-65
2022/03/31 03:16:07;;;;;;;;;56.00;46.25;;;;;;;;5076700;28;46402;-65
2022/03/31 03:18:34;;;;;;;;;52.25;44.75;;;;;;;;5076620;27;45424;-64
2022/03/31 03:20:59;;;;;;;;;55.25;42.50;;;;;;;;5075212;28;45329;-64
2022/03/31 03:23:24;;;;;;;;;45.00;37.50;;;;;;;;5075201;28;47447;-63
2022/03/31 03:25:49;;;;;;;;;49.00;41.50;;;;;;;;5076640;27;45328;-65
2022/03/31 03:28:15;;;;;;;;;52.25;41.75;;;;;;;;5076732;28;45448;-64
2022/03/31 03:30:40;;;;;;;;;51.25;42.25;;;;;;;;5076306;28;45496;-65
2022/03/31 03:33:05;;;;;;;;;45.25;38.50;;;;;;;;5068785;28;45412;-64
2022/03/31 03:35:31;;;;;;;;;55.00;44.50;;;;;;;;5076254;28;45460;-64
2022/03/31 03:37:56;;;;;;;;;51.50;42.75;;;;;;;;5076544;27;45396;-65
2022/03/31 03:40:22;;;;;;;;;54.50;42.00;;;;;;;;5076845;28;45435;-64
2022/03/31 03:42:47;;;;;;;;;50.50;40.00;;;;;;;;5075948;27;45587;-64
2022/03/31 03:45:13;;;;;;;;;53.50;45.25;;;;;;;;5074754;28;45436;-64
2022/03/31 03:47:38;;;;;;;;;52.25;44.25;;;;;;;;5074792;28;45416;-63
2022/03/31 03:50:04;;;;;;;;;56.00;46.25;;;;;;;;5075087;28;45449;-66
2022/03/31 03:52:30;;;;;;;;;54.50;44.50;;;;;;;;5070972;28;48364;-65
2022/03/31 03:54:55;;;;;;;;;53.00;44.50;;;;;;;;5075728;27;45508;-65
2022/03/31 03:57:23;;;;;;;;;56.25;45.00;;;;;;;;5075899;28;45387;-64
2022/03/31 03:59:48;;;;;;;;;54.00;45.00;;;;;;;;5074714;28;45416;-65
2022/03/31 04:02:14;;;;;;;;;56.50;46.00;;;;;;;;5075744;28;45673;-65
2022/03/31 04:04:39;;;;;;;;;53.75;45.50;;;;;;;;5076493;27;45411;-65
2022/03/31 04:07:04;;;;;;;;;54.50;45.50;;;;;;;;5075575;28;47849;-66
2022/03/31 04:09:29;;;;;;;;;59.75;46.25;;;;;;;;5075634;27;45439;-66
2022/03/31 04:11:55;;;;;;;;;56.50;47.25;;;;;;;;5075175;28;46985;-66
2022/03/31 04:14:21;;;;;;;;;56.75;44.25;;;;;;;;5074326;28;45974;-66
2022/03/31 04:16:47;;;;;;;;;58.00;47.25;;;;;;;;5075435;28;47056;-66
2022/03/31 04:19:12;;;;;;;;;54.75;46.25;;;;;;;;5074250;28;45649;-64
2022/03/31 04:21:37;;;;;;;;;57.50;46.25;;;;;;;;5075325;27;45543;-63
2022/03/31 04:24:03;;;;;;;;;52.50;44.00;;;;;;;;5075635;27;45369;-63
2022/03/31 04:26:28;;;;;;;;;55.50;46.00;;;;;;;;5075697;27;45513;-66
2022/03/31 04:28:54;;;;;;;;;57.50;47.75;;;;;;;;5074334;28;45687;-65
2022/03/31 04:31:19;;;;;;;;;60.25;47.75;;;;;;;;5075687;28;45408;-69
2022/03/31 04:33:44;;;;;;;;;62.50;50.25;;;;;;;;5067936;28;46305;-66
2022/03/31 04:36:09;;;;;;;;;62.00;47.00;;;;;;;;5075286;27;45459;-66
2022/03/31 04:38:35;;;;;;;;;58.00;46.00;;;;;;;;5075587;27;45468;-65
2022/03/31 04:41:00;;;;;;;;;57.75;44.75;;;;;;;;5075114;28;45576;-65
2022/03/31 04:43:25;;;;;;;;;56.25;45.75;;;;;;;;5074161;28;46234;-65
2022/03/31 04:45:50;;;;;;;;;55.75;41.50;;;;;;;;5073842;28;45532;-65
2022/03/31 04:48:16;;;;;;;;;58.25;47.25;;;;;;;;5074896;28;45895;-64
2022/03/31 04:50:41;;;;;;;;;62.50;50.00;;;;;;;;5072283;28;48550;-66
2022/03/31 04:53:06;;;;;;;;;62.00;48.75;;;;;;;;5074862;27;45373;-66
2022/03/31 04:55:32;;;;;;;;;58.00;47.50;;;;;;;;5074310;28;45480;-66
2022/03/31 04:57:57;;;;;;;;;62.75;51.00;;;;;;;;5075158;27;45512;-68
2022/03/31 05:00:23;;;;;;;;;61.50;50.50;;;;;;;;5073237;28;47542;-67
2022/03/31 05:02:48;;;;;;;;;58.00;47.25;;;;;;;;5073548;28;45651;-67
2022/03/31 05:05:13;;;;;;;;;63.75;51.25;;;;;;;;5074899;27;45538;-67
2022/03/31 05:07:39;;;;;;;;;64.50;51.00;;;;;;;;5073925;28;45398;-67
2022/03/31 05:10:04;;;;;;;;;64.50;49.25;;;;;;;;5074569;27;45814;-67
2022/03/31 05:12:29;;;;;;;;;62.75;51.00;;;;;;;;5074329;28;45360;-66
2022/03/31 05:14:55;;;;;;;;;67.50;52.50;;;;;;;;5073421;28;45511;-66
2022/03/31 05:17:20;;;;;;;;;60.00;48.00;;;;;;;;5073633;28;45389;-66
2022/03/31 05:19:45;;;;;;;;;55.75;43.75;;;;;;;;5075342;27;45784;-67
2022/03/31 05:22:10;;;;;;;;;73.25;55.00;;;;;;;;5074367;28;45817;-66
2022/03/31 05:24:36;;;;;;;;;66.00;51.50;;;;;;;;5072457;28;45494;-67
2022/03/31 05:27:01;;;;;;;;;73.00;56.25;;;;;;;;5074537;28;45506;-67
2022/03/31 05:29:26;;;;;;;;;69.00;55.50;;;;;;;;5071922;28;48345;-67
2022/03/31 05:31:52;;;;;;;;;63.25;53.00;;;;;;;;5073375;28;45907;-66
2022/03/31 05:34:19;;;;;;;;;63.25;53.25;;;;;;;;5074205;28;45404;-66
2022/03/31 05:36:44;;;;;;;;;65.75;52.25;;;;;;;;5074009;27;45581;-67
2022/03/31 05:39:09;;;;;;;;;65.75;52.25;;;;;;;;5072512;28;48403;-67
2022/03/31 05:41:34;;;;;;;;;68.00;53.50;;;;;;;;5074422;28;45652;-66
2022/03/31 05:44:00;;;;;;;;;64.50;50.00;;;;;;;;5074631;27;45323;-66
2022/03/31 05:46:26;;;;;;;;;75.25;57.25;;;;;;;;5074994;27;45356;-67
2022/03/31 05:48:51;;;;;;;;;69.50;54.75;;;;;;;;5073835;28;46456;-66
2022/03/31 05:51:17;;;;;;;;;70.50;55.50;;;;;;;;5074019;28;45385;-66
2022/03/31 05:53:42;;;;;;;;;73.00;57.75;;;;;;;;5074547;28;45677;-66
2022/03/31 05:56:07;;;;;;;;;71.50;55.75;;;;;;;;5074500;27;45301;-66
2022/03/31 05:58:33;;;;;;;;;77.75;58.25;;;;;;;;5073553;28;47795;-66
2022/03/31 06:00:59;;;;;;;;;70.75;56.00;;;;;;;;5074005;27;45432;-66
2022/03/31 06:03:24;;;;;;;;;71.25;56.25;;;;;;;;5066862;28;45642;-66
2022/03/31 06:05:50;;;;;;;;;70.75;55.00;;;;;;;;5074001;27;45288;-66
2022/03/31 06:08:17;;;;;;;;;67.50;54.50;;;;;;;;5073779;28;46196;-65
2022/03/31 06:10:42;;;;;;;;;71.00;56.50;;;;;;;;5073053;28;45574;-65
2022/03/31 06:13:09;;;;;;;;;66.25;52.25;;;;;;;;5073771;28;45524;-66
2022/03/31 06:15:35;;;;;;;;;76.00;60.00;;;;;;;;5073982;27;45529;-66
2022/03/31 06:18:00;;;;;;;;;67.50;55.50;;;;;;;;5073574;27;45576;-65
2022/03/31 06:20:27;;;;;;;;;74.75;58.25;;;;;;;;5073915;27;45463;-65
2022/03/31 06:22:53;;;;;;;;;72.50;55.50;;;;;;;;5072665;28;45722;-66
2022/03/31 06:25:18;;;;;;;;;72.25;58.00;;;;;;;;5072561;28;45500;-66
2022/03/31 06:27:44;;;;;;;;;75.25;58.00;;;;;;;;5072272;28;47651;-66
2022/03/31 06:30:09;;;;;;;;;68.50;54.25;;;;;;;;5066218;28;46168;-67
2022/03/31 06:32:35;;;;;;;;;68.75;55.50;;;;;;;;5073742;27;45436;-66
2022/03/31 06:35:00;;;;;;;;;68.50;54.50;;;;;;;;5072568;28;45463;-66
2022/03/31 06:37:25;;;;;;;;;68.50;53.75;;;;;;;;5076338;28;45506;-66
2022/03/31 06:39:50;;;;;;;;;68.00;53.00;;;;;;;;5077368;28;45477;-66
2022/03/31 06:42:16;;;;;;;;;72.75;55.50;;;;;;;;5075879;28;45388;-66
2022/03/31 06:44:42;;;;;;;;;74.25;56.50;;;;;;;;5075932;28;45878;-66
2022/03/31 06:47:07;;;;;;;;;72.25;57.25;;;;;;;;5076791;27;45828;-67
2022/03/31 06:49:34;;;;;;;;;70.00;54.25;;;;;;;;5077448;28;45440;-66
2022/03/31 06:51:59;;;;;;;;;69.00;54.00;;;;;;;;5076847;27;45465;-67
2022/03/31 06:54:26;;;;;;;;;61.50;51.00;;;;;;;;5076815;27;45400;-67
2022/03/31 06:56:51;;;;;;;;;67.50;51.50;;;;;;;;5076747;27;45506;-67
2022/03/31 06:59:17;;;;;;;;;69.50;53.25;;;;;;;;5075438;28;45499;-67
2022/03/31 07:01:42;;;;;;;;;64.00;52.00;;;;;;;;5077283;27;45360;-66
2022/03/31 07:04:07;;;;;;;;;65.25;52.25;;;;;;;;5076732;28;45376;-68
2022/03/31 07:06:34;;;;;;;;;61.50;50.00;;;;;;;;5076491;28;46478;-67
2022/03/31 07:08:59;;;;;;;;;70.00;53.75;;;;;;;;5076539;27;45497;-67
2022/03/31 07:11:24;;;;;;;;;66.00;53.00;;;;;;;;5076525;28;45346;-67
2022/03/31 07:13:49;;;;;;;;;64.75;51.25;;;;;;;;5075739;28;45503;-67
2022/03/31 07:16:16;;;;;;;;;67.25;53.50;;;;;;;;5076431;28;45342;-67
2022/03/31 07:18:41;;;;;;;;;65.00;52.00;;;;;;;;5075311;28;46166;-67
2022/03/31 07:21:06;;;;;;;;;66.50;51.50;;;;;;;;5068637;28;45414;-67
2022/03/31 07:23:32;;;;;;;;;64.00;52.75;;;;;;;;5074820;27;45534;-67
2022/03/31 07:25:57;;;;;;;;;70.25;55.75;;;;;;;;5075711;28;45925;-67
2022/03/31 07:28:23;;;;;;;;;69.00;54.25;;;;;;;;5076910;28;45533;-67
2022/03/31 07:30:48;;;;;;;;;70.25;56.25;;;;;;;;5076415;27;45710;-68
2022/03/31 07:33:13;;;;;;;;;73.50;57.00;;;;;;;;5074951;28;45505;-67
2022/03/31 07:35:39;;;;;;;;;76.00;60.25;;;;;;;;5076458;27;45500;-68
2022/03/31 07:38:07;;;;;;;;;76.50;58.75;;;;;;;;5074971;28;45750;-68
2022/03/31 07:40:32;;;;;;;;;71.75;57.75;;;;;;;;5072195;28;45603;-67
2022/03/31 07:42:58;;;;;;;;;70.75;51.75;;;;;;;;5071728;27;45522;-67
2022/03/31 07:45:23;;;;;;;;;57.75;46.25;;;;;;;;5074030;27;45656;-67
2022/03/31 07:47:49;;;;;;;;;60.75;48.00;;;;;;;;5078393;27;45602;-67
2022/03/31 07:50:16;;;;;;;;;56.00;45.00;;;;;;;;5089199;27;45463;-66
2022/03/31 07:52:42;;;;;;;;;64.50;50.75;;;;;;;;5082691;27;45585;-66
2022/03/31 07:55:08;;;;;;;;;67.50;54.00;;;;;;;;5082945;27;48515;-68
2022/03/31 07:57:33;;;;;;;;;71.00;55.50;;;;;;;;5078266;27;45605;-67
2022/03/31 07:59:59;;;;;;;;;70.25;53.00;;;;;;;;5081616;27;45353;-67
2022/03/31 08:02:25;;;;;;;;;64.00;52.00;;;;;;;;5087428;27;45397;-67
2022/03/31 08:04:50;;;;;;;;;67.50;52.00;;;;;;;;5082129;27;47623;-67
2022/03/31 08:07:16;;;;;;;;;27.75;24.25;;;;;;;;5085705;27;45469;-67
2022/03/31 08:09:41;;;;;;;;;25.00;21.25;;;;;;;;5078351;27;45482;-68
2022/03/31 08:12:07;;;;;;;;;22.00;19.50;;;;;;;;5080772;27;45503;-67
2022/03/31 08:14:32;;;;;;;;;21.25;17.50;;;;;;;;5086549;27;48416;-67
2022/03/31 08:16:57;;;;;;;;;16.50;16.50;;;;;;;;5081403;27;46256;-67
2022/03/31 08:19:23;;;;;;;;;20.75;18.75;;;;;;;;5084999;27;45452;-66
2022/03/31 08:21:48;;;;;;;;;14.00;13.00;;;;;;;;5071014;27;45436;-66
2022/03/31 08:24:14;;;;;;;;;14.00;14.00;;;;;;;;5081845;27;46521;-66
2022/03/31 08:26:40;;;;;;;;;9.25;9.00;;;;;;;;5101031;27;45637;-67
2022/03/31 08:29:07;;;;;;;;;10.25;10.00;;;;;;;;5081056;27;45836;-67
2022/03/31 08:31:33;;;;;;;;;8.50;8.00;;;;;;;;5074187;27;45549;-66
2022/03/31 08:33:58;;;;;;;;;10.00;10.00;;;;;;;;5073814;27;45600;-67
2022/03/31 08:36:24;;;;;;;;;7.50;7.50;;;;;;;;5077900;27;45490;-66
2022/03/31 08:38:49;;;;;;;;;4.00;4.00;;;;;;;;5085816;27;45740;-66
2022/03/31 08:41:16;;;;;;;;;7.00;7.00;;;;;;;;5081127;27;45739;-67
2022/03/31 08:43:42;;;;;;;;;7.50;7.50;;;;;;;;5074756;27;46183;-66
2022/03/31 08:46:08;;;;;;;;;11.75;8.50;;;;;;;;5073848;27;45609;-67
2022/03/31 08:48:34;;;;;;;;;6.25;6.25;;;;;;;;5077318;27;45292;-66
2022/03/31 08:50:59;;;;;;;;;9.25;9.25;;;;;;;;5072447;27;45388;-66
2022/03/31 08:53:24;;;;;;;;;7.25;7.25;;;;;;;;5078218;27;48552;-66
2022/03/31 08:55:49;;;;;;;;;9.00;7.50;;;;;;;;5073907;27;45282;-66
2022/03/31 08:58:15;;;;;;;;;7.00;7.00;;;;;;;;5074894;27;45456;-66
2022/03/31 09:00:41;;;;;;;;;7.25;7.25;;;;;;;;5076828;27;45345;-66
2022/03/31 09:03:10;;;;;;;;;7.00;7.00;;;;;;;;5074685;27;47438;-66
2022/03/31 09:05:37;;;;;;;;;8.00;8.00;;;;;;;;5076247;27;45625;-68
2022/03/31 09:08:05;;;;;;;;;5.50;5.50;;;;;;;;5075862;27;45388;-67
2022/03/31 09:10:34;;;;;;;;;9.00;7.25;;;;;;;;5072751;28;45439;-67
2022/03/31 09:13:01;;;;;;;;;6.00;6.00;;;;;;;;5031401;28;47630;-67
2022/03/31 09:15:26;;;;;;;;;7.00;7.00;;;;;;;;5032848;28;46035;-67
2022/03/31 09:17:52;;;;;;;;;4.00;4.00;;;;;;;;5031488;28;45559;-67
2022/03/31 09:20:17;;;;;;;;;3.25;3.25;;;;;;;;5032268;28;45659;-67
2022/03/31 09:22:44;;;;;;;;;6.00;6.00;;;;;;;;5035129;28;46179;-67
2022/03/31 09:25:10;;;;;;;;;8.25;7.00;;;;;;;;5031573;28;45574;-67
2022/03/31 09:27:36;;;;;;;;;8.00;8.00;;;;;;;;5032686;28;45365;-67
2022/03/31 09:30:05;;;;;;;;;6.50;6.50;;;;;;;;5031686;28;45730;-67
2022/03/31 09:32:30;;;;;;;;;7.00;7.00;;;;;;;;5031856;28;47865;-67
2022/03/31 09:35:04;;;;;;;;;4.75;3.75;;;;;;;;5033083;28;46277;-66
2022/03/31 09:37:29;;;;;;;;;2.00;2.00;;;;;;;;5046800;28;45543;-67
2022/03/31 09:39:55;;;;;;;;;8.00;7.50;;;;;;;;5024083;28;45609;-67
2022/03/31 09:42:21;;;;;;;;;6.50;6.50;;;;;;;;5032730;28;45658;-67
2022/03/31 09:44:55;;;;;;;;;7.00;7.00;;;;;;;;5031196;28;45647;-68
2022/03/31 09:47:20;;;;;;;;;8.00;8.00;;;;;;;;5015992;28;45740;-68
2022/03/31 09:49:51;;;;;;;;;8.00;8.00;;;;;;;;5033184;28;45415;-68
2022/03/31 09:52:19;;;;;;;;;7.50;3.00;;;;;;;;5047967;28;48609;-67
2022/03/31 09:54:45;;;;;;;;;7.50;6.25;;;;;;;;5032210;28;45627;-68
2022/03/31 09:57:11;;;;;;;;;8.75;7.75;;;;;;;;5029610;28;45594;-69
2022/03/31 09:59:41;;;;;;;;;10.25;9.00;;;;;;;;5031079;28;45481;-68
2022/03/31 10:02:07;;;;;;;;;7.25;7.25;;;;;;;;5032448;28;46272;-68
2022/03/31 10:04:32;;;;;;;;;7.00;6.50;;;;;;;;5034322;28;45799;-68
2022/03/31 10:06:58;;;;;;;;;6.00;5.00;;;;;;;;5031051;28;45824;-68
2022/03/31 10:09:24;;;;;;;;;5.50;5.50;;;;;;;;5042336;28;45586;-67
2022/03/31 10:12:00;;;;;;;;;6.75;6.75;;;;;;;;5053794;28;47756;-68
2022/03/31 10:14:25;;;;;;;;;9.00;4.50;;;;;;;;5057085;28;46439;-68
2022/03/31 10:16:58;;;;;;;;;3.50;3.00;;;;;;;;5073230;28;45808;-67
2022/03/31 10:19:27;;;;;;;;;4.25;4.00;;;;;;;;5089368;27;45482;-67
2022/03/31 10:22:05;;;;;;;;;4.00;4.00;;;;;;;;5073787;27;45743;-68
2022/03/31 10:24:44;;;;;;;;;4.25;4.25;;;;;;;;5066283;28;46542;-67
2022/03/31 10:27:14;;;;;;;;;5.25;3.00;;;;;;;;5073697;27;45422;-67
2022/03/31 10:29:41;;;;;;;;;4.00;4.00;;;;;;;;5073823;28;45379;-67
2022/03/31 10:32:16;;;;;;;;;5.00;3.75;;;;;;;;5073640;27;45554;-67
2022/03/31 10:34:44;;;;;;;;;3.00;2.00;;;;;;;;5070489;27;46226;-68
2022/03/31 10:37:11;;;;;;;;;3.75;3.75;;;;;;;;5076636;27;45521;-67
2022/03/31 10:39:36;;;;;;;;;3.50;3.50;;;;;;;;5077683;27;45515;-67
2022/03/31 10:42:05;;;;;;;;;3.00;3.00;;;;;;;;5073291;27;45485;-68
2022/03/31 10:44:30;;;;;;;;;4.00;4.00;;;;;;;;5081741;27;45354;-67
2022/03/31 10:47:03;;;;;;;;;5.00;3.75;;;;;;;;5077781;27;45496;-67
2022/03/31 10:49:29;;;;;;;;;4.00;4.00;;;;;;;;5081650;27;45454;-67
2022/03/31 10:51:54;;;;;;;;;2.50;2.00;;;;;;;;5076090;27;45528;-67
2022/03/31 10:54:24;;;;;;;;;3.75;3.75;;;;;;;;5071918;27;46199;-67
2022/03/31 10:57:00;;;;;;;;;2.00;2.00;;;;;;;;5084174;27;45439;-67
2022/03/31 10:59:26;;;;;;;;;4.00;4.00;;;;;;;;5060652;27;45399;-68
2022/03/31 11:01:52;;;;;;;;;4.00;4.00;;;;;;;;5069927;27;45773;-67
2022/03/31 11:04:19;;;;;;;;;3.00;3.00;;;;;;;;5066922;27;45544;-67
2022/03/31 11:06:45;;;;;;;;;4.00;4.00;;;;;;;;5072795;27;45595;-66
2022/03/31 11:09:19;;;;;;;;;4.50;4.50;;;;;;;;5082157;27;45375;-66
2022/03/31 11:11:49;;;;;;;;;6.25;5.00;;;;;;;;5070972;27;48441;-67
2022/03/31 11:14:17;;;;;;;;;4.50;4.00;;;;;;;;5080352;27;45421;-66
2022/03/31 11:16:42;;;;;;;;;5.25;5.25;;;;;;;;5077602;27;45422;-67
2022/03/31 11:19:08;;;;;;;;;4.25;4.00;;;;;;;;5076264;27;45709;-66
2022/03/31 11:21:42;;;;;;;;;5.25;5.25;;;;;;;;5077573;27;47620;-67
2022/03/31 11:24:08;;;;;;;;;5.00;4.00;;;;;;;;5073348;27;45511;-66
2022/03/31 11:26:34;;;;;;;;;4.00;4.00;;;;;;;;5082687;27;45852;-67
2022/03/31 11:29:00;;;;;;;;;2.25;2.25;;;;;;;;5078932;27;45464;-65
2022/03/31 11:31:25;;;;;;;;;4.00;3.50;;;;;;;;5080747;27;48886;-66
2022/03/31 11:33:51;;;;;;;;;3.00;3.00;;;;;;;;5078696;27;45581;-68
2022/03/31 11:36:20;;;;;;;;;3.75;3.75;;;;;;;;5075992;27;45419;-67
2022/03/31 11:38:59;;;;;;;;;7.25;6.50;;;;;;;;5084581;27;45385;-68
2022/03/31 11:41:24;;;;;;;;;7.50;7.50;;;;;;;;5061421;27;46252;-67
2022/03/31 11:43:53;;;;;;;;;3.00;3.00;;;;;;;;5087586;27;45484;-67
2022/03/31 11:46:18;;;;;;;;;3.25;2.25;;;;;;;;5093872;27;45538;-68
2022/03/31 11:48:45;;;;;;;;;3.25;3.25;;;;;;;;5077350;27;45521;-67
2022/03/31 11:51:11;;;;;;;;;4.50;4.00;;;;;;;;5078844;27;48842;-67
2022/03/31 11:53:43;;;;;;;;;5.00;4.00;;;;;;;;5074676;28;45576;-67
2022/03/31 11:56:16;;;;;;;;;4.00;4.00;;;;;;;;5075181;28;45381;-69
2022/03/31 11:58:47;;;;;;;;;5.00;5.00;;;;;;;;5075443;28;47242;-67
2022/03/31 12:01:13;;;;;;;;;5.00;5.00;;;;;;;;5074428;28;47861;-68
2022/03/31 12:03:38;;;;;;;;;6.00;6.00;;;;;;;;5075788;28;45423;-68
2022/03/31 12:06:04;;;;;;;;;4.75;4.00;;;;;;;;5076345;28;45756;-67
2022/03/31 12:08:30;;;;;;;;;7.00;7.00;;;;;;;;5073207;28;45436;-68
2022/03/31 12:10:56;;;;;;;;;5.75;3.25;;;;;;;;5069675;27;46132;-68
2022/03/31 12:13:22;;;;;;;;;5.00;5.00;;;;;;;;5069134;27;45370;-68
2022/03/31 12:15:47;;;;;;;;;3.50;3.00;;;;;;;;5070602;28;45453;-68
2022/03/31 12:18:17;;;;;;;;;4.50;3.50;;;;;;;;5075773;28;45309;-68
2022/03/31 12:20:43;;;;;;;;;6.75;3.25;;;;;;;;5075723;27;45711;-68
2022/03/31 12:23:19;;;;;;;;;4.00;4.00;;;;;;;;5074533;28;47711;-67
2022/03/31 12:25:45;;;;;;;;;2.50;2.50;;;;;;;;5075190;28;45405;-67
2022/03/31 12:28:10;;;;;;;;;4.50;4.50;;;;;;;;5074468;28;45391;-67
2022/03/31 12:30:39;;;;;;;;;3.75;3.75;;;;;;;;5090625;27;47555;-67
2022/03/31 12:33:15;;;;;;;;;4.25;4.25;;;;;;;;5074077;27;45874;-67
2022/03/31 12:35:40;;;;;;;;;3.50;3.50;;;;;;;;5074696;27;45814;-67
2022/03/31 12:38:07;;;;;;;;;3.75;3.75;;;;;;;;5075197;28;45462;-67
2022/03/31 12:40:33;;;;;;;;;4.00;4.00;;;;;;;;5072940;28;45322;-67
2022/03/31 12:42:58;;;;;;;;;3.75;2.75;;;;;;;;5073925;28;45455;-67
2022/03/31 12:45:24;;;;;;;;;6.00;4.50;;;;;;;;5075773;27;45530;-66
2022/03/31 12:47:50;;;;;;;;;4.00;4.00;;;;;;;;5073440;27;45529;-67
2022/03/31 12:50:19;;;;;;;;;3.50;3.50;;;;;;;;5074827;28;45519;-68
2022/03/31 12:52:51;;;;;;;;;4.50;4.50;;;;;;;;5074540;28;45571;-68
2022/03/31 12:55:17;;;;;;;;;4.25;4.25;;;;;;;;5075305;28;45348;-67
2022/03/31 12:57:42;;;;;;;;;5.00;5.00;;;;;;;;5067574;28;45358;-66
2022/03/31 13:00:12;;;;;;;;;8.50;7.25;;;;;;;;5067600;28;47047;-68
2022/03/31 13:02:38;;;;;;;;;4.25;4.25;;;;;;;;5073644;28;45440;-67
2022/03/31 13:05:04;;;;;;;;;6.00;4.25;;;;;;;;5073813;28;46035;-67
2022/03/31 13:07:29;;;;;;;;;5.75;4.25;;;;;;;;5067366;28;45733;-67
2022/03/31 13:09:56;;;;;;;;;4.75;4.75;;;;;;;;5074422;28;45412;-67
2022/03/31 13:12:21;;;;;;;;;3.50;3.50;;;;;;;;5074400;27;45787;-66
2022/03/31 13:14:46;;;;;;;;;4.00;4.00;;;;;;;;5073630;28;45959;-67
2022/03/31 13:17:14;;;;;;;;;6.00;5.00;;;;;;;;5075116;28;45407;-68
2022/03/31 13:19:39;;;;;;;;;6.00;5.00;;;;;;;;5075123;27;45366;-68
2022/03/31 13:22:05;;;;;;;;;7.50;6.25;;;;;;;;5074246;28;45811;-68
2022/03/31 13:24:30;;;;;;;;;5.00;5.00;;;;;;;;5073498;28;45697;-67
2022/03/31 13:26:56;;;;;;;;;7.00;7.00;;;;;;;;5073218;28;45583;-68
2022/03/31 13:29:23;;;;;;;;;4.00;4.00;;;;;;;;5072607;28;48684;-67
2022/03/31 13:31:51;;;;;;;;;6.50;6.50;;;;;;;;5070916;28;45476;-67
2022/03/31 13:34:17;;;;;;;;;4.00;4.00;;;;;;;;5073341;28;45570;-68
2022/03/31 13:36:42;;;;;;;;;8.75;8.25;;;;;;;;5074650;27;45489;-67
2022/03/31 13:39:12;;;;;;;;;7.00;5.00;;;;;;;;5066829;28;48662;-68
2022/03/31 13:41:37;;;;;;;;;8.50;8.50;;;;;;;;5074277;27;45467;-67
2022/03/31 13:44:04;;;;;;;;;5.25;5.25;;;;;;;;5074561;27;45399;-68
2022/03/31 13:46:29;;;;;;;;;7.00;7.00;;;;;;;;5072956;28;45389;-68
2022/03/31 13:48:54;;;;;;;;;8.25;8.25;;;;;;;;5072586;28;48316;-68
2022/03/31 13:51:19;;;;;;;;;5.25;5.25;;;;;;;;5072988;28;45557;-68
2022/03/31 13:53:45;;;;;;;;;7.00;6.50;;;;;;;;5074537;28;45516;-68
2022/03/31 13:56:11;;;;;;;;;2.75;2.75;;;;;;;;5073183;28;45238;-67
2022/03/31 14:01:20;;;;;;;;;4.50;3.75;;;;;;;;5073873;28;45325;-67
2022/03/31 14:03:47;;;;;;;;;3.50;3.50;;;;;;;;5066749;28;45483;-68
2022/03/31 14:06:20;;;;;;;;;3.25;3.25;;;;;;;;5066935;28;45337;-68
2022/03/31 14:08:45;;;;;;;;;3.00;3.00;;;;;;;;5066806;28;47643;-68
2022/03/31 14:11:11;;;;;;;;;1.00;1.00;;;;;;;;5071212;28;45359;-68
2022/03/31 14:13:37;;;;;;;;;2.00;2.00;;;;;;;;5074729;27;45403;-68
2022/03/31 14:16:03;;;;;;;;;5.00;4.00;;;;;;;;5073901;27;45445;-67
2022/03/31 14:18:33;;;;;;;;;4.00;4.00;;;;;;;;5073796;28;45685;-67
2022/03/31 14:20:59;;;;;;;;;4.00;3.00;;;;;;;;5073760;28;45487;-67
2022/03/31 14:23:25;;;;;;;;;4.25;4.00;;;;;;;;5074060;27;45305;-67
2022/03/31 14:25:50;;;;;;;;;6.25;4.25;;;;;;;;5073325;28;45326;-68
2022/03/31 14:28:15;;;;;;;;;4.50;4.50;;;;;;;;5073325;28;45470;-66